createdAt,value
2022-11-25T00:10:44.005Z,100334.90
2022-11-25T00:25:47.151Z,100333.60
2022-11-25T00:41:13.239Z,100341.44
2022-11-25T00:56:17.348Z,100349.16
2022-11-25T01:11:23.698Z,100350.48
2022-11-25T01:26:27.682Z,100342.23
2022-11-25T01:41:33.083Z,100359.46
2022-11-25T01:56:47.487Z,100361.89
2022-11-25T02:11:52.402Z,100371.57
2022-11-25T02:26:55.906Z,100378.20
2022-11-25T02:42:00.643Z,100396.07
2022-11-25T02:57:04.311Z,100403.61
2022-11-25T03:12:21.765Z,100417.39
2022-11-25T03:27:30.489Z,100429.66
2022-11-25T03:42:34.284Z,100441.91
2022-11-25T03:57:37.887Z,100444.43
2022-11-25T04:12:49.170Z,100447.55
2022-11-25T04:27:58.563Z,100453.20
2022-11-25T04:43:10.539Z,100454.11
2022-11-25T04:58:36.375Z,100454.56
2022-11-25T05:13:40.125Z,100463.29
2022-11-25T05:28:43.834Z,100466.81
2022-11-25T05:43:47.850Z,100473.45
2022-11-25T05:58:51.512Z,100481.60
2022-11-25T06:13:58.303Z,100495.34
2022-11-25T06:29:02.286Z,100509.05
2022-11-25T06:44:06.155Z,100514.80
2022-11-25T06:59:09.824Z,100524.73
2022-11-25T07:14:15.117Z,100543.63
2022-11-25T07:29:50.077Z,100555.10
2022-11-25T07:44:41.749Z,100553.88
2022-11-25T08:00:08.722Z,100561.50
2022-11-25T08:15:16.469Z,100572.20
2022-11-25T08:30:21.816Z,100580.71
2022-11-25T08:45:25.498Z,100581.59
2022-11-25T09:00:29.512Z,100588.55
2022-11-25T09:15:37.209Z,100594.05
2022-11-25T09:30:40.797Z,100602.20
2022-11-25T09:46:38.549Z,100617.92
2022-11-25T10:01:51.185Z,100617.62
2022-11-25T10:17:07.535Z,100627.66
2022-11-25T10:32:24.656Z,100626.48
2022-11-25T10:47:28.090Z,100634.42
2022-11-25T11:02:42.071Z,100633.47
2022-11-25T11:17:45.683Z,100627.67
2022-11-25T11:33:27.288Z,100632.92
2022-11-25T11:48:41.654Z,100635.23
2022-11-25T12:03:56.070Z,100635.35
2022-11-25T12:19:20.195Z,100645.67
2022-11-25T12:34:35.170Z,100658.55
2022-11-25T12:49:48.528Z,100660.35
2022-11-25T13:05:38.872Z,100661.10
2022-11-25T13:20:37.413Z,100679.89
2022-11-25T13:35:43.484Z,100689.56
2022-11-25T13:51:10.230Z,100692.09
2022-11-25T14:06:15.336Z,100698.06
2022-11-25T14:21:21.827Z,100705.52
2022-11-25T14:36:34.047Z,100714.44
2022-11-25T14:51:39.107Z,100722.80
2022-11-25T15:06:48.901Z,100741.07
2022-11-25T15:37:26.324Z,100759.38
2022-11-25T15:52:33.085Z,100757.19
2022-11-25T16:07:37.372Z,100761.34
2022-11-25T16:22:41.805Z,100768.52
2022-11-25T16:37:49.082Z,100768.20
2022-11-25T16:52:52.828Z,100764.60
2022-11-25T17:07:56.595Z,100777.17
2022-11-25T17:23:00.650Z,100783.83
2022-11-25T17:38:12.400Z,100788.67
2022-11-25T17:53:16.101Z,100794.73
2022-11-25T18:08:19.928Z,100802.24
2022-11-25T18:23:23.533Z,100805.86
2022-11-25T18:38:27.283Z,100821.11
2022-11-25T18:53:30.763Z,100830.52
2022-11-25T19:08:34.236Z,100838.48
2022-11-25T19:23:37.801Z,100843.60
2022-11-25T19:38:41.535Z,100858.18
2022-11-25T19:53:45.754Z,100870.40
2022-11-25T20:08:49.288Z,100887.72
2022-11-25T20:23:53.152Z,100898.69
2022-11-25T20:38:59.949Z,100912.61
2022-11-25T20:54:03.418Z,100912.82
2022-11-25T21:09:16.960Z,100922.48
2022-11-25T21:24:31.215Z,100932.25
2022-11-25T21:39:35.991Z,100931.97
2022-11-25T21:54:40.636Z,100943.59
2022-11-25T22:09:44.544Z,100957.08
2022-11-25T22:24:48.010Z,100964.66
2022-11-25T22:39:52.215Z,100972.20
2022-11-25T22:54:58.313Z,100982.70
2022-11-25T23:10:01.599Z,100988.15
2022-11-25T23:25:12.464Z,100997.45
2022-11-25T23:40:21.187Z,101010.31
2022-11-25T23:55:30.390Z,101014.77
